Wilson Algeciras — 9HA2471 — position and weather

sailwx.info

Track history (hours):
 
Tides and Currents Weather Stations Pressure Air Temp Water Temp Dewpoint Dewpoint Depression Visibility Wind Speed Wind Dir Waves Ship Positions

Wilson Algeciras

Last reported at 2014-Sep-16 04:32 UTC. Time now 2014-Sep-18 03:42 UTC.
Position N 43°25' W 002°43'.

Length 88 m; draft 5.2 m.

Type: Cargo ship. MMSI: 248689000.

Date/timePositionNaut miles runAvg speedWind from/ knotsBaromVisibWave heightAir tempDewpointWater temp
2014-Sep-16 04:32N 43°25' W 002°43'0 0.0
2014-Sep-15 19:29N 43°25' W 002°43'0 0.0
2014-Sep-15 18:32N 43°25' W 002°43'0 0.0
2014-Sep-15 17:29N 43°25' W 002°43'3 3.4
2014-Sep-15 16:34N 43°28' W 002°43'9 9.2
2014-Sep-15 15:34N 43°31' W 002°55'9 9.0
2014-Sep-15 14:32N 43°33' W 003°08'9 9.2
2014-Sep-15 13:34N 43°36' W 003°20'10 8.8
2014-Sep-15 12:27N 43°37' W 003°33'76 9.3
2014-Sep-15 04:18N 43°45' W 005°17'  
2014-Sep-12 17:33N 37°46' W 009°35'231 7.5
2014-Sep-11 10:33N 35°57' W 005°21'4 3.6
2014-Sep-11 09:33N 35°54' W 005°18'0 0.0
2014-Sep-11 08:34N 35°54' W 005°18'0 0.0
2014-Sep-11 07:33N 35°54' W 005°18'1 1.0
2014-Sep-11 06:33N 35°55' W 005°19'1 1.4
2014-Sep-11 05:33N 35°56' W 005°18'418 8.5
2014-Sep-09 04:12N 37°07' E 003°15'5 8.5
2014-Sep-09 03:33N 37°07' E 003°21'9 9.1
2014-Sep-09 02:33N 37°09' E 003°33'13 9.2
2014-Sep-09 01:07N 37°10' E 003°49'18 9.0
2014-Sep-08 23:09N 37°13' E 004°11'5 8.9
2014-Sep-08 22:33N 37°13' E 004°18'22 9.2
2014-Sep-08 20:12N 37°16' E 004°45'141 9.5
2014-Sep-08 05:19N 37°34' E 007°41'25 9.0
2014-Sep-08 02:33N 37°38' E 008°12'9 9.1
2014-Sep-08 01:32N 37°39' E 008°24'39 9.2
2014-Sep-07 21:19N 37°42' E 009°13'8 9.1
2014-Sep-07 20:29N 37°42' E 009°23'12 9.1
2014-Sep-07 19:11N 37°41' E 009°37'6 8.8
2014-Sep-07 18:31N 37°41' E 009°45'19 8.7
2014-Sep-07 16:21N 37°40' E 010°09'7 8.5
2014-Sep-07 15:32N 37°39' E 010°17'203 9.0
2014-Sep-06 17:07N 36°25' E 014°14'5 8.4
2014-Sep-06 16:33N 36°23' E 014°19'8 8.5
2014-Sep-06 15:33N 36°20' E 014°29'9 8.5
2014-Sep-06 14:33N 36°17' E 014°39'8 8.5
2014-Sep-06 13:33N 36°14' E 014°49'9 8.5
2014-Sep-06 12:33N 36°11' E 014°58'  
Track history (hours):
 
Tides and Currents Weather Stations Pressure Air Temp Water Temp Dewpoint Dewpoint Depression Visibility Wind Speed Wind Dir Waves Ship Positions

Wilson Algeciras

Last reported at 2014-Sep-16 04:32 UTC. Time now 2014-Sep-18 03:42 UTC.
Position N 43°25' W 002°43'.

Length 88 m; draft 5.2 m.

Type: Cargo ship. MMSI: 248689000.

Date/timePositionNaut miles runAvg speedWind from/ knotsBaromVisibWave heightAir tempDewpointWater temp
2014-Sep-16 04:32N 43°25' W 002°43'0 0.0
2014-Sep-15 19:29N 43°25' W 002°43'0 0.0
2014-Sep-15 18:32N 43°25' W 002°43'0 0.0
2014-Sep-15 17:29N 43°25' W 002°43'3 3.4
2014-Sep-15 16:34N 43°28' W 002°43'9 9.2
2014-Sep-15 15:34N 43°31' W 002°55'9 9.0
2014-Sep-15 14:32N 43°33' W 003°08'9 9.2
2014-Sep-15 13:34N 43°36' W 003°20'10 8.8
2014-Sep-15 12:27N 43°37' W 003°33'76 9.3
2014-Sep-15 04:18N 43°45' W 005°17'  
2014-Sep-12 17:33N 37°46' W 009°35'231 7.5
2014-Sep-11 10:33N 35°57' W 005°21'4 3.6
2014-Sep-11 09:33N 35°54' W 005°18'0 0.0
2014-Sep-11 08:34N 35°54' W 005°18'0 0.0
2014-Sep-11 07:33N 35°54' W 005°18'1 1.0
2014-Sep-11 06:33N 35°55' W 005°19'1 1.4
2014-Sep-11 05:33N 35°56' W 005°18'418 8.5
2014-Sep-09 04:12N 37°07' E 003°15'5 8.5
2014-Sep-09 03:33N 37°07' E 003°21'9 9.1
2014-Sep-09 02:33N 37°09' E 003°33'13 9.2
2014-Sep-09 01:07N 37°10' E 003°49'18 9.0
2014-Sep-08 23:09N 37°13' E 004°11'5 8.9
2014-Sep-08 22:33N 37°13' E 004°18'22 9.2
2014-Sep-08 20:12N 37°16' E 004°45'141 9.5
2014-Sep-08 05:19N 37°34' E 007°41'25 9.0
2014-Sep-08 02:33N 37°38' E 008°12'9 9.1
2014-Sep-08 01:32N 37°39' E 008°24'39 9.2
2014-Sep-07 21:19N 37°42' E 009°13'8 9.1
2014-Sep-07 20:29N 37°42' E 009°23'12 9.1
2014-Sep-07 19:11N 37°41' E 009°37'6 8.8
2014-Sep-07 18:31N 37°41' E 009°45'19 8.7
2014-Sep-07 16:21N 37°40' E 010°09'7 8.5
2014-Sep-07 15:32N 37°39' E 010°17'203 9.0
2014-Sep-06 17:07N 36°25' E 014°14'5 8.4
2014-Sep-06 16:33N 36°23' E 014°19'8 8.5
2014-Sep-06 15:33N 36°20' E 014°29'9 8.5
2014-Sep-06 14:33N 36°17' E 014°39'8 8.5
2014-Sep-06 13:33N 36°14' E 014°49'9 8.5
2014-Sep-06 12:33N 36°11' E 014°58'  

Dump ship's entire track history